Time;durP1;ratioP1;P1;durP2;ratioP2;P2;SDS_P1;SDS_P2;PMS_P1;PMS_P2;Temp;Humidity;BMP_temperature;BMP_pressure;BME280_temperature;BME280_humidity;BME280_pressure;Samples;Min_cycle;Max_cycle;Signal;HPM_P1;HPM_P2
2022/05/15 00:01:59;;;;;;;5.55;3.52;;;;;;;13.84;74.84;100472.89;1664148;85;21256;-93
2022/05/15 00:04:26;;;;;;;5.72;3.77;;;;;;;13.78;74.92;100464.96;1663391;85;20943;-92
2022/05/15 00:06:53;;;;;;;5.15;3.58;;;;;;;13.75;74.96;100475.75;1663717;86;20970;-91
2022/05/15 00:09:20;;;;;;;6.47;3.67;;;;;;;13.73;74.85;100476.34;1664198;85;20946;-91
2022/05/15 00:11:48;;;;;;;7.37;3.92;;;;;;;13.70;74.82;100476.59;1664033;85;20943;-92
2022/05/15 00:14:16;;;;;;;9.43;4.03;;;;;;;13.69;74.62;100478.84;1663966;86;20951;-90
2022/05/15 00:16:47;;;;;;;7.83;3.92;;;;;;;13.66;74.40;100479.91;1664871;85;20907;-89
2022/05/15 00:19:14;;;;;;;4.15;3.50;;;;;;;13.62;74.32;100485.05;1664388;85;20966;-91
2022/05/15 00:21:40;;;;;;;7.20;3.55;;;;;;;13.59;73.94;100487.09;1663809;85;20970;-92
2022/05/15 00:24:09;;;;;;;8.68;3.72;;;;;;;13.55;73.62;100489.11;1663433;85;20907;-91
2022/05/15 00:26:36;;;;;;;4.50;3.25;;;;;;;13.52;73.45;100482.77;1663566;85;21479;-93
2022/05/15 00:29:04;;;;;;;6.50;3.30;;;;;;;13.50;73.19;100497.00;1662940;85;20954;-93
2022/05/15 00:31:32;;;;;;;6.45;3.58;;;;;;;13.46;73.02;100495.89;1662538;85;20923;-92
2022/05/15 00:33:59;;;;;;;6.53;3.30;;;;;;;13.44;72.88;100493.84;1662603;85;20934;-91
2022/05/15 00:36:28;;;;;;;4.75;2.75;;;;;;;13.44;72.57;100500.92;1662952;85;20959;-91
2022/05/15 00:38:55;;;;;;;4.65;3.20;;;;;;;13.41;72.16;100503.31;1662738;85;21267;-91
2022/05/15 00:41:22;;;;;;;4.37;2.85;;;;;;;13.36;71.69;100498.87;1662789;85;21479;-93
2022/05/15 00:43:53;;;;;;;4.10;2.77;;;;;;;13.33;71.64;100500.88;1663863;86;20903;-91
2022/05/15 00:46:26;;;;;;;4.78;2.85;;;;;;;13.31;71.33;100500.14;1664691;85;20927;-91
2022/05/15 00:48:53;;;;;;;4.55;2.90;;;;;;;13.25;71.37;100493.03;1665036;86;20895;-91
2022/05/15 00:51:41;;;;;;;3.58;2.95;;;;;;;13.21;71.07;100497.32;1664014;85;21253;-92
2022/05/15 00:54:22;;;;;;;9.33;2.80;;;;;;;13.17;70.89;100503.27;1641711;85;20923;-91
2022/05/15 00:56:55;;;;;;;3.83;3.15;;;;;;;13.10;70.94;100504.68;1664437;85;20946;-91
2022/05/15 00:59:23;;;;;;;6.47;3.30;;;;;;;13.07;71.20;100502.25;1661876;85;21015;-90
2022/05/15 01:01:50;;;;;;;3.70;3.33;;;;;;;13.04;71.22;100502.00;1664310;85;20867;-89
2022/05/15 01:04:17;;;;;;;5.92;2.90;;;;;;;13.03;71.28;100500.81;1665292;86;21117;-89
2022/05/15 01:06:44;;;;;;;3.87;2.30;;;;;;;12.99;71.30;100500.67;1664961;80;21021;-91
2022/05/15 01:09:12;;;;;;;9.78;2.75;;;;;;;12.96;71.29;100501.73;1664867;81;20947;-90
2022/05/15 01:11:39;;;;;;;7.10;2.80;;;;;;;12.92;71.06;100504.22;1664949;81;21166;-90
2022/05/15 01:14:09;;;;;;;7.10;3.12;;;;;;;12.90;71.27;100506.59;1643817;82;20931;-91
2022/05/15 01:16:37;;;;;;;7.75;2.95;;;;;;;12.90;71.28;100509.23;1664892;83;21212;-91
2022/05/15 01:19:04;;;;;;;5.03;3.15;;;;;;;12.90;71.16;100515.33;1663932;85;20998;-93
2022/05/15 01:21:42;;;;;;;5.45;3.05;;;;;;;12.90;71.16;100515.33;1661196;85;20922;-93
2022/05/15 01:24:09;;;;;;;4.28;2.80;;;;;;;12.91;71.28;100521.42;1659644;86;20891;-92
2022/05/15 01:26:37;;;;;;;5.58;3.00;;;;;;;12.90;71.06;100518.44;1660646;85;20970;-91
2022/05/15 01:29:06;;;;;;;6.58;2.72;;;;;;;12.89;71.14;100518.06;1660406;86;22034;-92
2022/05/15 01:31:33;;;;;;;9.95;3.95;;;;;;;12.88;71.23;100513.27;1662278;86;21193;-93
2022/05/15 01:34:00;;;;;;;3.87;2.75;;;;;;;12.85;71.09;100513.50;1663516;83;20949;-90
2022/05/15 01:36:27;;;;;;;3.58;3.10;;;;;;;12.82;71.19;100514.54;1663265;84;21003;-89
2022/05/15 01:38:56;;;;;;;5.90;3.25;;;;;;;12.83;71.28;100516.72;1663375;83;20979;-91
2022/05/15 01:41:24;;;;;;;5.90;3.33;;;;;;;12.80;71.24;100518.23;1663439;83;21109;-92
2022/05/15 01:43:54;;;;;;;2.85;2.65;;;;;;;12.79;71.32;100519.20;1662054;86;20919;-92
2022/05/15 01:46:26;;;;;;;7.03;2.80;;;;;;;12.78;71.21;100522.77;1662203;85;20965;-90
2022/05/15 01:48:53;;;;;;;4.37;3.12;;;;;;;12.76;71.27;100528.16;1663245;85;21057;-90
2022/05/15 01:51:21;;;;;;;4.30;3.47;;;;;;;12.74;71.22;100530.50;1662634;85;20883;-89
2022/05/15 01:53:48;;;;;;;4.55;3.17;;;;;;;12.71;71.13;100528.09;1661255;86;21872;-90
2022/05/15 01:56:15;;;;;;;6.90;5.00;;;;;;;12.67;71.29;100530.09;1660905;85;20943;-91
2022/05/15 01:58:42;;;;;;;5.30;3.30;;;;;;;12.64;71.26;100537.73;1662251;85;21081;-90
2022/05/15 02:01:09;;;;;;;4.75;3.25;;;;;;;12.62;71.35;100528.27;1662297;85;20967;-92
2022/05/15 02:03:36;;;;;;;6.35;3.35;;;;;;;12.58;71.33;100531.61;1635278;86;21463;-93
2022/05/15 02:06:03;;;;;;;5.70;3.27;;;;;;;12.56;71.22;100531.32;1661538;86;21218;-93
2022/05/15 02:08:34;;;;;;;5.90;3.65;;;;;;;12.50;71.23;100531.77;1660290;85;20935;-92
2022/05/15 02:11:01;;;;;;;10.15;3.12;;;;;;;12.42;71.54;100527.02;1660407;86;20958;-92
2022/05/15 02:13:28;;;;;;;4.90;3.20;;;;;;;12.37;71.62;100530.45;1660463;85;20926;-91
2022/05/15 02:15:57;;;;;;;7.40;3.05;;;;;;;12.32;71.62;100534.72;1660524;85;20919;-93
2022/05/15 02:18:24;;;;;;;3.33;3.02;;;;;;;12.28;71.85;100529.30;1660436;85;21206;-91
2022/05/15 02:20:51;;;;;;;5.17;3.12;;;;;;;12.26;72.22;100526.41;1660800;84;21121;-92
2022/05/15 02:23:18;;;;;;;10.23;2.77;;;;;;;12.23;72.18;100524.36;1662220;85;20935;-90
2022/05/15 02:25:45;;;;;;;5.05;3.27;;;;;;;12.22;72.48;100529.23;1662464;85;20951;-91
2022/05/15 02:28:12;;;;;;;3.37;3.00;;;;;;;12.20;72.54;100534.23;1663974;85;21272;-92
2022/05/15 02:30:39;;;;;;;4.20;2.87;;;;;;;12.21;72.38;100536.77;1662384;85;21913;-92
2022/05/15 02:33:07;;;;;;;3.50;2.65;;;;;;;12.23;72.39;100541.45;1662218;85;20978;-92
2022/05/15 02:35:34;;;;;;;4.55;3.20;;;;;;;12.25;72.38;100545.30;1662685;85;21014;-92
2022/05/15 02:38:01;;;;;;;5.58;3.27;;;;;;;12.26;72.08;100548.28;1662469;85;20958;-92
2022/05/15 02:40:28;;;;;;;5.28;2.62;;;;;;;12.29;71.91;100545.42;1662969;85;21448;-92
2022/05/15 02:42:56;;;;;;;6.55;4.22;;;;;;;12.29;71.85;100553.31;1663150;85;21133;-94
2022/05/15 02:45:24;;;;;;;2.80;2.30;;;;;;;12.29;71.71;100553.31;1662784;85;21144;-95
2022/05/15 02:47:51;;;;;;;5.12;2.75;;;;;;;12.29;71.60;100561.69;1662940;85;21389;-91
2022/05/15 02:53:04;;;;;;;8.35;4.47;;;;;;;12.27;71.57;100555.20;1664441;85;20970;-92
2022/05/15 02:55:31;;;;;;;4.42;3.47;;;;;;;12.30;71.62;100565.53;1664057;85;21137;-92
2022/05/15 02:57:59;;;;;;;9.78;4.17;;;;;;;12.31;71.58;100560.62;1663336;85;21030;-92
2022/05/15 03:00:27;;;;;;;6.45;3.15;;;;;;;12.34;71.26;100570.09;1662460;85;20970;-92
2022/05/15 03:02:54;;;;;;;7.55;3.42;;;;;;;12.34;71.13;100570.95;1662381;85;21011;-93
2022/05/15 03:05:23;;;;;;;8.68;3.80;;;;;;;12.36;70.85;100570.38;1641416;85;21021;-93
2022/05/15 03:07:50;;;;;;;5.78;3.20;;;;;;;12.36;71.00;100575.64;1662796;85;21746;-91
2022/05/15 03:10:18;;;;;;;12.13;3.50;;;;;;;12.35;70.87;100576.57;1663581;85;20868;-92
2022/05/15 03:12:47;;;;;;;4.20;2.90;;;;;;;12.35;70.83;100571.31;1662433;86;20959;-92
2022/05/15 03:15:15;;;;;;;4.35;3.25;;;;;;;12.36;70.90;100573.02;1662674;85;20974;-92
2022/05/15 03:17:43;;;;;;;4.65;3.12;;;;;;;12.41;70.71;100576.64;1662683;85;20867;-93
2022/05/15 03:20:12;;;;;;;6.78;3.10;;;;;;;12.41;70.71;100576.64;1663015;85;21875;-92
2022/05/15 03:22:39;;;;;;;10.70;3.25;;;;;;;12.44;70.79;100589.56;1662340;85;20879;-92
2022/05/15 03:25:07;;;;;;;9.13;3.58;;;;;;;12.49;70.67;100586.63;1663076;85;20967;-93
2022/05/15 03:27:34;;;;;;;8.93;3.65;;;;;;;12.53;70.57;100589.41;1663240;85;20994;-94
2022/05/15 03:30:01;;;;;;;7.22;3.47;;;;;;;12.57;70.44;100586.47;1662845;85;20947;-93
2022/05/15 03:32:29;;;;;;;7.42;3.22;;;;;;;12.62;70.28;100584.83;1662650;85;21317;-92
2022/05/15 03:34:57;;;;;;;5.83;3.87;;;;;;;12.68;70.21;100589.67;1662649;85;20907;-91
2022/05/15 03:37:24;;;;;;;5.35;3.45;;;;;;;12.72;70.01;100586.37;1662367;85;21076;-93
2022/05/15 03:39:51;;;;;;;4.78;3.45;;;;;;;12.76;70.01;100588.68;1641309;86;21149;-90
2022/05/15 03:42:19;;;;;;;5.55;3.08;;;;;;;12.78;69.61;100581.52;1664336;85;20911;-89
2022/05/15 03:44:46;;;;;;;7.58;3.45;;;;;;;12.81;69.46;100583.93;1664313;85;22278;-92
2022/05/15 03:47:13;;;;;;;5.87;3.65;;;;;;;12.83;69.37;100586.46;1663345;85;21006;-92
2022/05/15 03:49:40;;;;;;;6.95;3.52;;;;;;;12.87;69.48;100590.53;1663137;86;20903;-94
2022/05/15 03:52:08;;;;;;;6.53;3.47;;;;;;;12.91;69.48;100592.48;1663561;85;20899;-92
2022/05/15 03:54:35;;;;;;;7.00;3.42;;;;;;;12.95;69.41;100595.28;1662595;85;21045;-92
2022/05/15 03:57:03;;;;;;;5.65;3.85;;;;;;;13.00;69.21;100591.84;1662497;85;21202;-92
2022/05/15 03:59:34;;;;;;;10.35;3.92;;;;;;;13.13;68.49;100590.50;1662508;85;20923;-92
2022/05/15 04:02:03;;;;;;;4.58;3.37;;;;;;;13.13;68.49;100590.50;1664014;85;20978;-92
2022/05/15 04:04:30;;;;;;;5.25;3.47;;;;;;;13.23;68.09;100596.80;1663191;85;20935;-92
2022/05/15 04:07:00;;;;;;;6.37;3.58;;;;;;;13.33;68.16;100598.33;1662649;85;20919;-94
2022/05/15 04:09:28;;;;;;;8.88;3.08;;;;;;;13.43;67.92;100594.92;1662907;85;21242;-94
2022/05/15 04:11:55;;;;;;;8.05;3.50;;;;;;;13.54;67.56;100598.09;1662466;85;20974;-93
2022/05/15 04:14:23;;;;;;;6.15;3.15;;;;;;;13.65;66.84;100595.52;1663095;85;21001;-94
2022/05/15 04:16:52;;;;;;;5.72;2.95;;;;;;;13.92;66.79;100594.44;1662560;85;21429;-91
2022/05/15 04:19:19;;;;;;;5.08;3.05;;;;;;;14.99;64.97;100582.73;1662673;85;20950;-93
2022/05/15 04:21:46;;;;;;;5.97;3.22;;;;;;;14.99;64.97;100582.73;1662500;85;21310;-92
2022/05/15 04:24:16;;;;;;;8.90;3.30;;;;;;;15.68;62.78;100585.09;1662836;85;20998;-93
2022/05/15 04:26:44;;;;;;;7.53;3.33;;;;;;;16.34;61.27;100586.25;1663067;85;21061;-93
2022/05/15 04:29:11;;;;;;;8.68;3.47;;;;;;;16.99;59.66;100588.17;1663077;85;20931;-93
2022/05/15 04:31:38;;;;;;;6.92;2.95;;;;;;;17.65;58.15;100584.59;1662853;85;21464;-92
2022/05/15 04:34:05;;;;;;;4.45;2.92;;;;;;;18.24;56.28;100588.93;1665387;83;21232;-90
2022/05/15 04:36:34;;;;;;;3.58;2.42;;;;;;;18.73;54.78;100596.27;1665182;84;21002;-89
2022/05/15 04:39:03;;;;;;;4.87;2.72;;;;;;;19.18;53.09;100590.70;1665260;85;20915;-90
2022/05/15 04:41:30;;;;;;;7.95;2.52;;;;;;;19.57;51.76;100591.80;1664188;85;20919;-92
2022/05/15 04:43:58;;;;;;;5.40;2.70;;;;;;;19.92;50.70;100591.46;1662883;85;21500;-93
2022/05/15 04:46:33;;;;;;;6.25;3.22;;;;;;;20.17;49.94;100588.02;1663220;85;21353;-91
2022/05/15 04:48:53;;;;;;;7.35;2.75;;;;;;;20.36;49.13;100586.97;1660755;85;21049;-92
2022/05/15 04:51:20;;;;;;;5.00;2.37;;;;;;;20.59;48.75;100589.16;1663076;85;20951;-92
2022/05/15 04:53:51;;;;;;;6.50;2.35;;;;;;;20.87;48.21;100585.28;1662848;85;21401;-93
2022/05/15 04:56:18;;;;;;;8.23;2.35;;;;;;;21.14;47.33;100585.22;1663036;85;20919;-92
2022/05/15 04:58:47;;;;;;;4.47;1.90;;;;;;;21.36;46.52;100579.28;1662835;85;21019;-90
2022/05/15 05:01:15;;;;;;;7.30;2.42;;;;;;;21.63;46.15;100576.88;1662587;85;20959;-91
2022/05/15 05:03:42;;;;;;;4.50;2.15;;;;;;;21.85;45.04;100579.36;1663093;85;21076;-89
2022/05/15 05:06:12;;;;;;;4.75;2.05;;;;;;;22.06;44.41;100582.87;1663929;86;20934;-91
2022/05/15 05:08:39;;;;;;;2.70;1.85;;;;;;;22.28;44.43;100585.39;1662986;85;20958;-91
2022/05/15 05:11:06;;;;;;;9.25;2.00;;;;;;;22.48;43.59;100578.35;1663611;85;21233;-90
2022/05/15 05:13:33;;;;;;;3.22;2.35;;;;;;;22.64;42.67;100582.81;1662712;85;20966;-91
2022/05/15 05:16:01;;;;;;;2.58;1.90;;;;;;;22.82;42.61;100588.77;1665064;81;20832;-91
2022/05/15 05:18:27;;;;;;;5.47;1.95;;;;;;;23.08;42.37;100581.01;1665290;81;20999;-91
2022/05/15 05:20:54;;;;;;;4.65;1.77;;;;;;;23.30;41.98;100584.71;1664760;80;20923;-90
2022/05/15 05:23:21;;;;;;;7.50;1.70;;;;;;;23.56;41.29;100586.55;1664556;83;21266;-91
2022/05/15 05:25:48;;;;;;;9.50;1.92;;;;;;;23.73;40.68;100582.44;1665035;81;21017;-89
2022/05/15 05:28:16;;;;;;;4.45;2.22;;;;;;;23.93;40.26;100582.81;1663898;84;20966;-91
2022/05/15 05:30:43;;;;;;;4.53;1.55;;;;;;;24.22;39.27;100581.22;1662810;85;21002;-91
2022/05/15 05:33:10;;;;;;;4.83;2.65;;;;;;;24.36;38.55;100581.22;1662866;85;20902;-91
2022/05/15 05:35:37;;;;;;;4.05;1.82;;;;;;;24.57;38.70;100581.05;1662436;85;21167;-91
2022/05/15 05:38:05;;;;;;;2.50;1.40;;;;;;;24.85;38.18;100577.70;1662357;85;20947;-92
2022/05/15 05:40:32;;;;;;;2.30;1.72;;;;;;;25.05;37.52;100573.92;1662610;85;20931;-92
2022/05/15 05:43:00;;;;;;;3.85;1.20;;;;;;;25.15;37.09;100572.61;1662372;85;20978;-92
2022/05/15 05:45:26;;;;;;;5.20;1.47;;;;;;;25.26;36.85;100575.34;1662613;85;21027;-91
2022/05/15 05:47:55;;;;;;;1.90;1.52;;;;;;;25.44;36.78;100577.09;1662518;85;21381;-92
2022/05/15 05:50:24;;;;;;;2.87;2.08;;;;;;;25.58;36.67;100584.77;1662314;85;20976;-92
2022/05/15 05:52:52;;;;;;;2.27;1.70;;;;;;;25.72;36.05;100579.52;1662469;85;20907;-92
2022/05/15 05:55:20;;;;;;;3.67;2.40;;;;;;;25.79;36.24;100581.75;1662823;85;20939;-93
2022/05/15 05:59:27;;;;;;;2.12;1.60;;;;;;;26.15;35.54;100572.80;1884889;75;22436;-92
2022/05/15 06:01:53;;;;;;;7.12;1.90;;;;;;;26.23;35.06;100573.48;1861628;77;20931;-92
2022/05/15 06:07:06;;;;;;;3.30;1.70;;;;;;;26.49;34.26;100574.67;1861406;77;20956;-93
2022/05/15 06:09:37;;;;;;;3.08;1.22;;;;;;;26.53;33.83;100571.08;1862035;77;20867;-91
2022/05/15 06:12:05;;;;;;;2.20;1.42;;;;;;;26.59;34.29;100578.36;1832201;77;20919;-92
2022/05/15 06:14:32;;;;;;;4.00;1.37;;;;;;;26.72;33.82;100577.61;1862602;77;20871;-89
2022/05/15 06:17:00;;;;;;;2.87;1.42;;;;;;;26.81;33.25;100578.61;1862516;77;21790;-90
2022/05/15 06:19:27;;;;;;;2.55;1.45;;;;;;;26.85;33.33;100579.84;1862788;76;20958;-89
2022/05/15 06:21:56;;;;;;;3.15;1.30;;;;;;;26.86;32.64;100578.83;1861536;77;20836;-91
2022/05/15 06:24:25;;;;;;;3.35;1.20;;;;;;;26.86;32.38;100568.59;1861419;77;21578;-92
2022/05/15 06:26:54;;;;;;;1.67;1.25;;;;;;;26.85;33.61;100577.68;1861481;77;20852;-93
2022/05/15 06:29:21;;;;;;;5.85;1.30;;;;;;;26.99;32.85;100583.94;1861894;77;21251;-91
2022/05/15 06:31:48;;;;;;;4.17;1.27;;;;;;;27.02;31.81;100578.17;1861744;77;20943;-91
2022/05/15 06:34:15;;;;;;;4.08;1.15;;;;;;;27.03;32.35;100582.52;1861174;77;20832;-91
2022/05/15 06:36:42;;;;;;;2.85;1.62;;;;;;;27.14;32.68;100585.97;1831823;77;20864;-91
2022/05/15 06:39:10;;;;;;;3.83;1.25;;;;;;;27.20;32.08;100588.39;1863989;77;20832;-89
2022/05/15 06:41:50;;;;;;;4.25;1.10;;;;;;;27.33;32.14;100583.59;1833705;77;20938;-89
2022/05/15 06:44:12;;;;;;;;;;;;;;;27.51;31.74;100582.48;1861595;76;21490;-87
2022/05/15 06:46:41;;;;;;;2.02;1.02;;;;;;;27.68;31.65;100579.72;1864118;77;20094;-88
2022/05/15 06:49:08;;;;;;;1.95;0.88;;;;;;;27.79;31.05;100582.82;1863829;76;20907;-89
2022/05/15 06:51:37;;;;;;;4.45;1.62;;;;;;;27.91;31.20;100577.17;1863365;76;20962;-91
2022/05/15 06:54:04;;;;;;;3.72;1.55;;;;;;;27.96;30.85;100575.20;1863251;77;21149;-88
2022/05/15 06:59:18;;;;;;;3.33;1.22;;;;;;;28.26;31.13;100574.25;1863005;76;20922;-87
2022/05/15 07:01:45;;;;;;;6.85;2.15;;;;;;;28.51;30.40;100573.09;1863309;77;20880;-90
2022/05/15 07:04:12;;;;;;;5.95;2.15;;;;;;;28.73;30.77;100581.75;1862527;77;20840;-91
2022/05/15 07:06:40;;;;;;;5.97;1.70;;;;;;;28.86;31.33;100584.92;1861572;77;21229;-88
2022/05/15 07:09:08;;;;;;;4.12;2.35;;;;;;;28.96;30.87;100584.46;1861693;77;20954;-90
2022/05/15 07:11:34;;;;;;;3.95;1.72;;;;;;;28.79;31.10;100585.45;1861917;76;21057;-91
2022/05/15 07:14:04;;;;;;;5.47;1.55;;;;;;;28.76;30.18;100571.04;1860958;77;20927;-92
2022/05/15 07:16:31;;;;;;;3.98;2.47;;;;;;;28.73;30.44;100579.87;1861195;76;20887;-90
2022/05/15 07:18:58;;;;;;;5.03;2.40;;;;;;;28.85;30.19;100583.25;1861208;76;21405;-91
2022/05/15 07:21:26;;;;;;;6.20;2.70;;;;;;;28.63;30.79;100586.22;1862565;77;20864;-88
2022/05/15 07:23:53;;;;;;;3.77;1.98;;;;;;;28.41;31.06;100585.61;1861045;77;20859;-92
2022/05/15 07:26:20;;;;;;;6.97;2.30;;;;;;;28.12;31.30;100588.25;1861614;77;20879;-91
2022/05/15 07:28:51;;;;;;;4.10;2.25;;;;;;;27.90;31.35;100591.67;1861089;77;20950;-92
2022/05/15 07:31:19;;;;;;;2.90;1.52;;;;;;;27.64;31.78;100587.08;1860772;76;21451;-92
2022/05/15 07:33:46;;;;;;;4.40;1.90;;;;;;;27.37;31.96;100591.06;1861317;77;20991;-90
2022/05/15 07:36:18;;;;;;;5.28;2.30;;;;;;;27.32;32.90;100596.73;1859470;76;20891;-92
2022/05/15 07:38:47;;;;;;;7.80;2.10;;;;;;;27.21;32.83;100592.76;1832030;77;21041;-92
2022/05/15 07:41:14;;;;;;;9.35;2.60;;;;;;;27.07;32.85;100570.31;1863835;77;20882;-89
2022/05/15 07:43:41;;;;;;;4.42;1.90;;;;;;;27.18;32.65;100598.53;1863350;77;21128;-87
2022/05/15 07:46:08;;;;;;;5.60;2.22;;;;;;;27.22;32.32;100599.30;1861527;76;20884;-89
2022/05/15 07:48:35;;;;;;;5.10;2.85;;;;;;;27.36;32.59;100609.59;1862253;77;20867;-91
2022/05/15 07:51:03;;;;;;;6.05;2.60;;;;;;;27.60;32.21;100605.50;1861391;77;20872;-89
2022/05/15 07:53:31;;;;;;;6.22;2.45;;;;;;;27.82;31.14;100604.81;1861226;76;21515;-89
2022/05/15 07:56:09;;;;;;;8.25;2.37;;;;;;;27.96;31.03;100601.62;1860934;77;21240;-91
2022/05/15 07:58:37;;;;;;;11.40;2.10;;;;;;;28.11;30.57;100611.69;1860409;77;20891;-90
2022/05/15 08:01:05;;;;;;;5.80;2.37;;;;;;;28.25;30.10;100604.95;1858960;76;20902;-94
2022/05/15 08:03:38;;;;;;;8.35;2.40;;;;;;;28.29;29.99;100609.71;1863525;77;20922;-91
2022/05/15 08:08:53;;;;;;;3.72;1.10;;;;;;;28.06;30.41;100614.19;1861867;77;21399;-91
2022/05/15 08:11:20;;;;;;;4.47;1.40;;;;;;;27.89;29.98;100614.28;1861126;77;20887;-91
2022/05/15 08:13:47;;;;;;;5.17;1.62;;;;;;;27.89;30.50;100616.45;1861147;77;20946;-91
2022/05/15 08:16:15;;;;;;;4.78;1.65;;;;;;;28.08;29.68;100620.70;1861650;77;20851;-91
2022/05/15 08:24:22;;;;;;;3.90;1.02;;;;;;;28.40;29.60;100606.90;1857794;76;20863;-88
2022/05/15 08:26:49;;;;;;;2.65;0.88;;;;;;;28.63;29.16;100610.51;1862659;77;21465;-88
2022/05/15 08:29:18;;;;;;;1.22;0.70;;;;;;;28.81;28.29;100617.11;1861622;77;20962;-91
2022/05/15 08:31:46;;;;;;;3.37;1.15;;;;;;;28.90;27.74;100613.13;1861131;77;21384;-91
2022/05/15 08:34:13;;;;;;;1.92;1.15;;;;;;;28.91;27.97;100611.58;1860989;77;21248;-90
2022/05/15 08:36:42;;;;;;;2.12;0.80;;;;;;;28.91;28.32;100614.27;1861340;77;20926;-93
2022/05/15 08:39:09;;;;;;;1.22;0.78;;;;;;;28.93;27.53;100612.19;1860938;77;20981;-90
2022/05/15 08:42:02;;;;;;;2.00;0.80;;;;;;;29.11;28.09;100620.98;1860645;76;20840;-90
2022/05/15 08:44:32;;;;;;;;;;;;;;;29.22;27.25;100615.95;1863561;77;20923;-89
2022/05/15 08:47:11;;;;;;;1.80;0.70;;;;;;;29.16;27.39;100616.81;1861454;77;21092;-89
2022/05/15 08:49:49;;;;;;;2.40;0.60;;;;;;;29.21;27.27;100616.45;1860643;76;20920;-88
2022/05/15 08:52:24;;;;;;;2.40;0.62;;;;;;;29.08;27.04;100620.53;1860833;77;20875;-90
2022/05/15 08:55:12;;;;;;;1.95;1.10;;;;;;;29.12;27.57;100615.05;1861774;77;20887;-92
2022/05/15 08:57:48;;;;;;;2.33;1.42;;;;;;;29.11;27.85;100618.28;1861127;77;20966;-91
2022/05/15 09:00:18;;;;;;;5.12;0.93;;;;;;;29.12;27.59;100609.12;1836587;75;20860;-91
2022/05/15 09:02:47;;;;;;;1.47;0.68;;;;;;;29.21;27.45;100616.45;1835570;77;21400;-90
2022/05/15 09:05:15;;;;;;;2.42;1.02;;;;;;;29.24;27.47;100612.00;1835697;76;21373;-88
2022/05/15 09:08:01;;;;;;;1.15;0.50;;;;;;;29.37;26.50;100604.84;1835429;77;20938;-89
2022/05/15 09:10:36;;;;;;;5.17;0.60;;;;;;;29.43;26.26;100609.39;1835635;76;20918;-89
2022/05/15 09:13:11;;;;;;;4.05;1.15;;;;;;;29.42;27.15;100607.75;1835096;77;21240;-89
2022/05/15 09:15:53;;;;;;;5.10;1.20;;;;;;;29.55;27.32;100612.55;1835370;77;20958;-90
2022/05/15 09:18:21;;;;;;;2.92;1.25;;;;;;;29.60;27.31;100606.48;1834401;77;20934;-90
2022/05/15 09:21:04;;;;;;;3.87;1.12;;;;;;;29.78;26.55;100611.70;1837262;77;21020;-90
2022/05/15 09:23:35;;;;;;;3.92;2.22;;;;;;;29.48;26.86;100613.12;1837969;77;20981;-88
2022/05/15 09:26:13;;;;;;;3.58;1.02;;;;;;;29.41;27.46;100609.60;1837715;77;21198;-89
2022/05/15 09:28:53;;;;;;;2.30;0.88;;;;;;;29.20;26.55;100605.36;1809445;78;20903;-88
2022/05/15 09:31:38;;;;;;;2.37;1.35;;;;;;;28.87;27.04;100598.19;1837484;77;21000;-89
2022/05/15 09:34:08;;;;;;;5.35;1.10;;;;;;;28.45;27.52;100604.39;1836020;76;21403;-89
2022/05/15 09:36:42;;;;;;;2.60;0.95;;;;;;;27.97;27.79;100598.41;1836046;77;20816;-88
2022/05/15 09:39:29;;;;;;;2.80;1.00;;;;;;;27.68;28.16;100595.03;1835850;77;22048;-88
2022/05/15 09:45:25;;;;;;;3.30;0.98;;;;;;;27.70;27.90;100594.31;1836502;77;21010;-88
2022/05/15 09:48:01;;;;;;;2.10;0.75;;;;;;;27.76;29.21;100595.38;1836116;77;20902;-88
2022/05/15 09:50:52;;;;;;;3.37;0.90;;;;;;;27.99;29.20;100593.15;1837082;77;20914;-84
2022/05/15 09:53:24;;;;;;;1.90;0.90;;;;;;;28.22;29.00;100592.70;1835393;77;21205;-89
2022/05/15 09:56:01;;;;;;;3.33;1.45;;;;;;;28.16;28.82;100592.72;1835109;77;20998;-90
2022/05/15 09:58:38;;;;;;;2.25;1.35;;;;;;;28.20;28.94;100604.22;1835424;77;20918;-88
2022/05/15 10:01:16;;;;;;;3.27;0.98;;;;;;;28.19;28.25;100603.08;1849151;76;21011;-90
2022/05/15 10:03:52;;;;;;;4.20;1.77;;;;;;;28.13;28.20;100588.57;1831400;76;20936;-89
2022/05/15 10:06:21;;;;;;;4.00;2.12;;;;;;;27.97;28.63;100588.48;1848660;77;22549;-89
2022/05/15 10:09:07;;;;;;;4.10;1.65;;;;;;;27.82;28.71;100590.52;1849234;76;21395;-87
2022/05/15 10:11:35;;;;;;;5.05;4.35;;;;;;;27.63;28.80;100595.66;1849955;77;20858;-91
2022/05/15 10:14:02;;;;;;;2.90;1.50;;;;;;;27.34;29.44;100599.53;1849229;77;21435;-89
2022/05/15 10:16:37;;;;;;;1.10;0.80;;;;;;;27.02;29.51;100607.78;1849584;77;20909;-89
2022/05/15 10:19:27;;;;;;;2.27;1.55;;;;;;;26.63;29.81;100603.33;1849563;77;21128;-91
2022/05/15 10:22:27;;;;;;;6.92;2.05;;;;;;;26.25;29.93;100604.19;1784495;79;20883;-91
2022/05/15 10:24:55;;;;;;;3.90;1.35;;;;;;;25.77;30.65;100599.94;1784979;79;20916;-91
2022/05/15 10:27:28;;;;;;;3.05;1.37;;;;;;;25.41;31.18;100601.64;1784084;79;20891;-92
2022/05/15 10:30:09;;;;;;;6.90;2.08;;;;;;;25.36;31.90;100600.02;1784600;79;20892;-89
2022/05/15 10:32:58;;;;;;;2.45;1.30;;;;;;;25.36;31.89;100601.36;1784369;79;21838;-91
2022/05/15 10:35:47;;;;;;;5.50;1.50;;;;;;;25.34;31.61;100594.52;1786164;79;20856;-89
2022/05/15 10:38:41;;;;;;;2.70;1.70;;;;;;;25.20;32.06;100595.71;1759194;79;20859;-90
2022/05/15 10:41:19;;;;;;;4.42;1.75;;;;;;;25.03;32.43;100591.06;1783878;79;21023;-91
2022/05/15 10:44:18;;;;;;;4.85;2.33;;;;;;;24.79;32.88;100590.84;1785317;80;20848;-90
2022/05/15 10:46:57;;;;;;;7.05;3.72;;;;;;;24.60;32.82;100596.25;1785940;79;20927;-88
2022/05/15 10:49:47;;;;;;;8.83;2.60;;;;;;;24.43;33.06;100589.87;1787290;79;20915;-89
2022/05/15 10:52:41;;;;;;;7.55;2.20;;;;;;;24.29;33.29;100587.50;1787469;79;21092;-90
2022/05/15 10:58:42;;;;;;;5.75;3.55;;;;;;;23.95;34.23;100599.03;1850069;77;20850;-93
2022/05/15 11:01:20;;;;;;;5.42;3.87;;;;;;;23.81;34.92;100597.11;1859899;77;21223;-89
2022/05/15 11:04:04;;;;;;;6.30;3.47;;;;;;;23.72;35.47;100597.68;1860762;77;20942;-89
2022/05/15 11:06:59;;;;;;;10.50;4.10;;;;;;;23.59;35.49;100600.94;1861053;77;20908;-90
2022/05/15 11:09:45;;;;;;;6.22;3.77;;;;;;;23.41;35.79;100596.86;1861193;77;21017;-88
2022/05/15 11:12:33;;;;;;;9.63;4.70;;;;;;;23.21;36.13;100597.81;1861049;77;20844;-88
2022/05/15 11:15:15;;;;;;;8.00;4.12;;;;;;;23.03;36.39;100599.41;1860845;76;21350;-90
2022/05/15 11:17:53;;;;;;;4.85;2.22;;;;;;;22.82;36.84;100602.13;1859718;76;20864;-90
2022/05/15 11:20:25;;;;;;;3.85;1.72;;;;;;;22.65;37.12;100602.67;1858514;77;20903;-92
2022/05/15 11:23:18;;;;;;;2.35;1.30;;;;;;;22.48;37.01;100610.42;1858660;77;20863;-91
2022/05/15 11:25:57;;;;;;;5.03;2.35;;;;;;;22.29;37.16;100605.75;1793231;79;20898;-90
2022/05/15 11:28:38;;;;;;;7.30;2.75;;;;;;;22.09;37.53;100603.08;1753395;81;21179;-91
2022/05/15 11:31:10;;;;;;;5.15;2.98;;;;;;;21.91;38.19;100594.72;1724254;82;20915;-93
2022/05/15 11:33:54;;;;;;;6.55;3.12;;;;;;;21.78;38.89;100596.23;1770043;80;20918;-91
2022/05/15 11:36:33;;;;;;;4.42;1.62;;;;;;;21.65;39.63;100601.54;1795214;80;20890;-89
2022/05/15 11:39:17;;;;;;;2.17;1.72;;;;;;;21.55;39.49;100594.20;1792372;80;20895;-92
2022/05/15 11:42:08;;;;;;;5.40;2.30;;;;;;;21.44;40.18;100590.01;1751734;81;21330;-91
2022/05/15 11:44:27;;;;;;;8.00;1.85;;;;;;;21.33;41.24;100591.11;1754963;80;20911;-94
2022/05/15 11:46:59;;;;;;;3.37;1.98;;;;;;;21.28;40.47;100587.28;1716360;83;20912;-92
2022/05/15 11:49:39;;;;;;;6.28;2.52;;;;;;;21.20;40.61;100589.41;1792215;79;21432;-91
2022/05/15 11:52:14;;;;;;;6.17;1.37;;;;;;;21.15;40.79;100594.41;1752276;80;20883;-90
2022/05/15 11:54:50;;;;;;;2.15;1.15;;;;;;;21.13;41.18;100591.06;1751670;80;21173;-93
2022/05/15 11:57:43;;;;;;;5.22;2.80;;;;;;;21.13;41.04;100592.39;1744535;81;20864;-91
2022/05/15 12:00:24;;;;;;;3.47;3.00;;;;;;;21.15;41.68;100587.73;1831052;77;21405;-92
2022/05/15 12:02:56;;;;;;;7.70;3.65;;;;;;;21.22;41.57;100579.92;1861217;77;20970;-90
2022/05/15 12:05:37;;;;;;;14.00;6.80;;;;;;;21.28;41.01;100584.61;1861161;76;20899;-90
2022/05/15 12:08:25;;;;;;;9.50;5.08;;;;;;;21.26;40.77;100578.09;1860928;77;21236;-92